sensor_id;sensor_type;location;lat;lon;timestamp;P1;durP1;ratioP1;P2;durP2;ratioP2
6015;SDS011;3036;49.960;8.454;2024-02-16T00:01:43;1.10;;;1.00;;
6015;SDS011;3036;49.960;8.454;2024-02-16T00:04:10;1.37;;;1.13;;
6015;SDS011;3036;49.960;8.454;2024-02-16T00:06:37;3.03;;;1.30;;
6015;SDS011;3036;49.960;8.454;2024-02-16T00:09:04;2.70;;;1.20;;
6015;SDS011;3036;49.960;8.454;2024-02-16T00:11:36;2.20;;;1.17;;
6015;SDS011;3036;49.960;8.454;2024-02-16T00:14:03;2.37;;;1.10;;
6015;SDS011;3036;49.960;8.454;2024-02-16T00:16:30;4.87;;;1.40;;
6015;SDS011;3036;49.960;8.454;2024-02-16T00:18:57;1.77;;;1.00;;
6015;SDS011;3036;49.960;8.454;2024-02-16T00:21:24;1.57;;;1.23;;
6015;SDS011;3036;49.960;8.454;2024-02-16T00:23:51;3.30;;;1.20;;
6015;SDS011;3036;49.960;8.454;2024-02-16T00:26:18;2.40;;;1.10;;
6015;SDS011;3036;49.960;8.454;2024-02-16T00:28:47;2.60;;;1.33;;
6015;SDS011;3036;49.960;8.454;2024-02-16T00:31:14;7.33;;;1.30;;
6015;SDS011;3036;49.960;8.454;2024-02-16T00:33:41;3.30;;;1.53;;
6015;SDS011;3036;49.960;8.454;2024-02-16T00:36:08;4.57;;;1.70;;
6015;SDS011;3036;49.960;8.454;2024-02-16T00:38:36;7.07;;;1.47;;
6015;SDS011;3036;49.960;8.454;2024-02-16T00:41:03;2.13;;;0.90;;
6015;SDS011;3036;49.960;8.454;2024-02-16T00:43:32;4.20;;;1.30;;
6015;SDS011;3036;49.960;8.454;2024-02-16T00:46:00;2.20;;;1.30;;
6015;SDS011;3036;49.960;8.454;2024-02-16T00:48:27;1.80;;;1.40;;
6015;SDS011;3036;49.960;8.454;2024-02-16T00:50:54;1.20;;;1.20;;
6015;SDS011;3036;49.960;8.454;2024-02-16T00:53:21;1.63;;;1.07;;
6015;SDS011;3036;49.960;8.454;2024-02-16T00:55:49;1.87;;;1.40;;
6015;SDS011;3036;49.960;8.454;2024-02-16T00:58:16;2.20;;;1.00;;
6015;SDS011;3036;49.960;8.454;2024-02-16T01:00:44;1.83;;;1.37;;
6015;SDS011;3036;49.960;8.454;2024-02-16T01:03:13;3.50;;;1.47;;
6015;SDS011;3036;49.960;8.454;2024-02-16T01:05:40;4.23;;;1.20;;
6015;SDS011;3036;49.960;8.454;2024-02-16T01:08:07;1.93;;;1.20;;
6015;SDS011;3036;49.960;8.454;2024-02-16T01:10:34;3.57;;;1.30;;
6015;SDS011;3036;49.960;8.454;2024-02-16T01:13:01;5.43;;;1.60;;
6015;SDS011;3036;49.960;8.454;2024-02-16T01:15:28;1.53;;;1.20;;
6015;SDS011;3036;49.960;8.454;2024-02-16T01:17:55;1.30;;;1.20;;
6015;SDS011;3036;49.960;8.454;2024-02-16T01:20:26;4.83;;;1.10;;
6015;SDS011;3036;49.960;8.454;2024-02-16T01:22:56;1.40;;;1.40;;
6015;SDS011;3036;49.960;8.454;2024-02-16T01:25:23;3.40;;;1.47;;
6015;SDS011;3036;49.960;8.454;2024-02-16T01:27:50;4.23;;;1.40;;
6015;SDS011;3036;49.960;8.454;2024-02-16T01:30:17;1.30;;;0.90;;
6015;SDS011;3036;49.960;8.454;2024-02-16T01:32:45;4.03;;;1.70;;
6015;SDS011;3036;49.960;8.454;2024-02-16T01:35:12;2.63;;;1.60;;
6015;SDS011;3036;49.960;8.454;2024-02-16T01:37:41;4.87;;;1.33;;
6015;SDS011;3036;49.960;8.454;2024-02-16T01:40:09;1.50;;;1.23;;
6015;SDS011;3036;49.960;8.454;2024-02-16T01:42:39;1.97;;;1.70;;
6015;SDS011;3036;49.960;8.454;2024-02-16T01:45:06;5.13;;;2.40;;
6015;SDS011;3036;49.960;8.454;2024-02-16T01:47:34;2.70;;;1.90;;
6015;SDS011;3036;49.960;8.454;2024-02-16T01:50:02;4.17;;;2.10;;
6015;SDS011;3036;49.960;8.454;2024-02-16T01:52:29;2.47;;;1.80;;
6015;SDS011;3036;49.960;8.454;2024-02-16T01:55:00;2.33;;;2.07;;
6015;SDS011;3036;49.960;8.454;2024-02-16T01:57:28;3.30;;;1.40;;
6015;SDS011;3036;49.960;8.454;2024-02-16T01:59:55;3.93;;;1.57;;
6015;SDS011;3036;49.960;8.454;2024-02-16T02:02:22;2.60;;;1.20;;
6015;SDS011;3036;49.960;8.454;2024-02-16T02:04:49;1.27;;;1.27;;
6015;SDS011;3036;49.960;8.454;2024-02-16T02:07:16;4.43;;;1.37;;
6015;SDS011;3036;49.960;8.454;2024-02-16T02:09:43;2.10;;;1.10;;
6015;SDS011;3036;49.960;8.454;2024-02-16T02:12:11;1.60;;;1.00;;
6015;SDS011;3036;49.960;8.454;2024-02-16T02:14:39;1.57;;;1.17;;
6015;SDS011;3036;49.960;8.454;2024-02-16T02:17:06;1.83;;;1.73;;
6015;SDS011;3036;49.960;8.454;2024-02-16T02:19:34;2.50;;;1.87;;
6015;SDS011;3036;49.960;8.454;2024-02-16T02:22:01;2.40;;;1.60;;
6015;SDS011;3036;49.960;8.454;2024-02-16T02:24:30;3.80;;;1.70;;
6015;SDS011;3036;49.960;8.454;2024-02-16T02:26:57;4.10;;;1.13;;
6015;SDS011;3036;49.960;8.454;2024-02-16T02:29:24;4.50;;;1.57;;
6015;SDS011;3036;49.960;8.454;2024-02-16T02:31:51;2.33;;;1.53;;
6015;SDS011;3036;49.960;8.454;2024-02-16T02:34:18;1.67;;;1.57;;
6015;SDS011;3036;49.960;8.454;2024-02-16T02:36:46;7.37;;;1.57;;
6015;SDS011;3036;49.960;8.454;2024-02-16T02:39:13;8.63;;;1.60;;
6015;SDS011;3036;49.960;8.454;2024-02-16T02:41:41;6.13;;;1.43;;
6015;SDS011;3036;49.960;8.454;2024-02-16T02:44:08;3.97;;;2.03;;
6015;SDS011;3036;49.960;8.454;2024-02-16T02:46:36;7.73;;;1.53;;
6015;SDS011;3036;49.960;8.454;2024-02-16T02:49:03;1.97;;;1.77;;
6015;SDS011;3036;49.960;8.454;2024-02-16T02:51:30;2.47;;;2.10;;
6015;SDS011;3036;49.960;8.454;2024-02-16T02:53:57;5.40;;;1.80;;
6015;SDS011;3036;49.960;8.454;2024-02-16T02:56:24;2.80;;;1.70;;
6015;SDS011;3036;49.960;8.454;2024-02-16T02:58:52;2.40;;;1.80;;
6015;SDS011;3036;49.960;8.454;2024-02-16T03:01:19;4.53;;;2.17;;
6015;SDS011;3036;49.960;8.454;2024-02-16T03:03:47;1.70;;;1.60;;
6015;SDS011;3036;49.960;8.454;2024-02-16T03:06:17;3.03;;;1.63;;
6015;SDS011;3036;49.960;8.454;2024-02-16T03:08:44;6.63;;;1.70;;
6015;SDS011;3036;49.960;8.454;2024-02-16T03:11:11;2.37;;;1.57;;
6015;SDS011;3036;49.960;8.454;2024-02-16T03:13:38;2.77;;;1.93;;
6015;SDS011;3036;49.960;8.454;2024-02-16T03:16:07;2.50;;;1.70;;
6015;SDS011;3036;49.960;8.454;2024-02-16T03:18:34;1.97;;;1.70;;
6015;SDS011;3036;49.960;8.454;2024-02-16T03:21:01;4.23;;;1.83;;
6015;SDS011;3036;49.960;8.454;2024-02-16T03:23:28;3.83;;;1.90;;
6015;SDS011;3036;49.960;8.454;2024-02-16T03:25:55;2.00;;;1.90;;
6015;SDS011;3036;49.960;8.454;2024-02-16T03:28:22;2.37;;;2.17;;
6015;SDS011;3036;49.960;8.454;2024-02-16T03:30:49;2.47;;;2.23;;
6015;SDS011;3036;49.960;8.454;2024-02-16T03:33:17;3.53;;;2.20;;
6015;SDS011;3036;49.960;8.454;2024-02-16T03:35:44;2.47;;;2.07;;
6015;SDS011;3036;49.960;8.454;2024-02-16T03:38:13;5.40;;;2.23;;
6015;SDS011;3036;49.960;8.454;2024-02-16T03:40:40;4.10;;;2.47;;
6015;SDS011;3036;49.960;8.454;2024-02-16T03:43:07;3.40;;;1.90;;
6015;SDS011;3036;49.960;8.454;2024-02-16T03:45:34;2.70;;;2.03;;
6015;SDS011;3036;49.960;8.454;2024-02-16T03:48:01;4.00;;;2.47;;
6015;SDS011;3036;49.960;8.454;2024-02-16T03:50:29;3.47;;;2.23;;
6015;SDS011;3036;49.960;8.454;2024-02-16T03:52:56;6.90;;;2.00;;
6015;SDS011;3036;49.960;8.454;2024-02-16T03:55:24;2.07;;;1.97;;
6015;SDS011;3036;49.960;8.454;2024-02-16T03:57:51;2.93;;;2.27;;
6015;SDS011;3036;49.960;8.454;2024-02-16T04:00:18;2.30;;;2.10;;
6015;SDS011;3036;49.960;8.454;2024-02-16T04:02:45;5.13;;;2.30;;
6015;SDS011;3036;49.960;8.454;2024-02-16T04:05:12;3.97;;;2.00;;
6015;SDS011;3036;49.960;8.454;2024-02-16T04:07:41;2.90;;;2.00;;
6015;SDS011;3036;49.960;8.454;2024-02-16T04:10:08;2.50;;;1.70;;
6015;SDS011;3036;49.960;8.454;2024-02-16T04:12:35;2.23;;;2.10;;
6015;SDS011;3036;49.960;8.454;2024-02-16T04:15:03;2.43;;;2.30;;
6015;SDS011;3036;49.960;8.454;2024-02-16T04:17:30;3.33;;;2.20;;
6015;SDS011;3036;49.960;8.454;2024-02-16T04:19:57;7.00;;;1.87;;
6015;SDS011;3036;49.960;8.454;2024-02-16T04:22:24;2.37;;;2.20;;
6015;SDS011;3036;49.960;8.454;2024-02-16T04:24:52;5.03;;;2.27;;
6015;SDS011;3036;49.960;8.454;2024-02-16T04:27:19;2.10;;;2.00;;
6015;SDS011;3036;49.960;8.454;2024-02-16T04:29:46;4.47;;;1.87;;
6015;SDS011;3036;49.960;8.454;2024-02-16T04:32:13;3.17;;;2.53;;
6015;SDS011;3036;49.960;8.454;2024-02-16T04:34:40;2.43;;;1.97;;
6015;SDS011;3036;49.960;8.454;2024-02-16T04:37:07;3.50;;;2.43;;
6015;SDS011;3036;49.960;8.454;2024-02-16T04:39:35;3.10;;;2.07;;
6015;SDS011;3036;49.960;8.454;2024-02-16T04:42:04;6.37;;;2.40;;
6015;SDS011;3036;49.960;8.454;2024-02-16T04:44:31;2.70;;;2.43;;
6015;SDS011;3036;49.960;8.454;2024-02-16T04:46:58;3.43;;;2.03;;
6015;SDS011;3036;49.960;8.454;2024-02-16T04:49:25;4.30;;;2.30;;
6015;SDS011;3036;49.960;8.454;2024-02-16T04:51:52;7.13;;;2.30;;
6015;SDS011;3036;49.960;8.454;2024-02-16T04:54:19;1.97;;;1.83;;
6015;SDS011;3036;49.960;8.454;2024-02-16T04:56:47;3.43;;;3.13;;
6015;SDS011;3036;49.960;8.454;2024-02-16T04:59:16;2.37;;;2.27;;
6015;SDS011;3036;49.960;8.454;2024-02-16T05:01:43;2.47;;;2.27;;
6015;SDS011;3036;49.960;8.454;2024-02-16T05:04:10;3.70;;;2.53;;
6015;SDS011;3036;49.960;8.454;2024-02-16T05:06:38;3.20;;;2.50;;
6015;SDS011;3036;49.960;8.454;2024-02-16T05:09:05;2.13;;;2.03;;
6015;SDS011;3036;49.960;8.454;2024-02-16T05:11:32;2.63;;;2.43;;
6015;SDS011;3036;49.960;8.454;2024-02-16T05:13:59;4.83;;;2.37;;
6015;SDS011;3036;49.960;8.454;2024-02-16T05:16:28;6.30;;;2.50;;
6015;SDS011;3036;49.960;8.454;2024-02-16T05:18:56;2.50;;;2.27;;
6015;SDS011;3036;49.960;8.454;2024-02-16T05:21:23;2.17;;;1.97;;
6015;SDS011;3036;49.960;8.454;2024-02-16T05:23:50;2.37;;;1.93;;
6015;SDS011;3036;49.960;8.454;2024-02-16T05:26:17;4.97;;;2.20;;
6015;SDS011;3036;49.960;8.454;2024-02-16T05:28:45;2.07;;;1.93;;
6015;SDS011;3036;49.960;8.454;2024-02-16T05:31:13;3.67;;;2.27;;
6015;SDS011;3036;49.960;8.454;2024-02-16T05:33:43;3.10;;;2.00;;
6015;SDS011;3036;49.960;8.454;2024-02-16T05:36:10;2.50;;;2.30;;
6015;SDS011;3036;49.960;8.454;2024-02-16T05:38:37;2.93;;;1.77;;
6015;SDS011;3036;49.960;8.454;2024-02-16T05:41:08;3.90;;;1.90;;
6015;SDS011;3036;49.960;8.454;2024-02-16T05:43:36;3.50;;;1.70;;
6015;SDS011;3036;49.960;8.454;2024-02-16T05:46:04;2.47;;;2.27;;
6015;SDS011;3036;49.960;8.454;2024-02-16T05:48:31;3.13;;;2.23;;
6015;SDS011;3036;49.960;8.454;2024-02-16T05:51:04;2.63;;;2.00;;
6015;SDS011;3036;49.960;8.454;2024-02-16T05:53:31;5.23;;;2.40;;
6015;SDS011;3036;49.960;8.454;2024-02-16T05:55:58;1.70;;;1.70;;
6015;SDS011;3036;49.960;8.454;2024-02-16T05:58:25;3.70;;;2.67;;
6015;SDS011;3036;49.960;8.454;2024-02-16T06:00:54;2.30;;;1.93;;
6015;SDS011;3036;49.960;8.454;2024-02-16T06:03:21;2.80;;;2.30;;
6015;SDS011;3036;49.960;8.454;2024-02-16T06:05:48;4.43;;;2.10;;
6015;SDS011;3036;49.960;8.454;2024-02-16T06:08:16;2.43;;;2.30;;
6015;SDS011;3036;49.960;8.454;2024-02-16T06:10:44;4.67;;;2.67;;
6015;SDS011;3036;49.960;8.454;2024-02-16T06:13:16;4.17;;;3.53;;
6015;SDS011;3036;49.960;8.454;2024-02-16T06:15:43;4.57;;;4.17;;
6015;SDS011;3036;49.960;8.454;2024-02-16T06:18:10;3.07;;;2.80;;
6015;SDS011;3036;49.960;8.454;2024-02-16T06:20:37;3.63;;;2.83;;
6015;SDS011;3036;49.960;8.454;2024-02-16T06:23:04;6.10;;;3.97;;
6015;SDS011;3036;49.960;8.454;2024-02-16T06:25:32;4.60;;;3.77;;
6015;SDS011;3036;49.960;8.454;2024-02-16T06:27:59;5.83;;;3.97;;
6015;SDS011;3036;49.960;8.454;2024-02-16T06:30:27;8.10;;;3.90;;
6015;SDS011;3036;49.960;8.454;2024-02-16T06:32:54;5.27;;;4.70;;
6015;SDS011;3036;49.960;8.454;2024-02-16T06:35:23;5.93;;;4.30;;
6015;SDS011;3036;49.960;8.454;2024-02-16T06:37:50;4.80;;;4.30;;
6015;SDS011;3036;49.960;8.454;2024-02-16T06:40:18;5.60;;;5.07;;
6015;SDS011;3036;49.960;8.454;2024-02-16T06:42:47;6.93;;;4.53;;
6015;SDS011;3036;49.960;8.454;2024-02-16T06:45:14;7.93;;;5.87;;
6015;SDS011;3036;49.960;8.454;2024-02-16T06:47:41;5.00;;;4.50;;
6015;SDS011;3036;49.960;8.454;2024-02-16T06:50:08;5.97;;;4.70;;
6015;SDS011;3036;49.960;8.454;2024-02-16T06:52:35;6.60;;;4.63;;
6015;SDS011;3036;49.960;8.454;2024-02-16T06:55:03;6.87;;;4.97;;
6015;SDS011;3036;49.960;8.454;2024-02-16T06:57:30;7.87;;;4.67;;
6015;SDS011;3036;49.960;8.454;2024-02-16T06:59:58;5.07;;;4.37;;
6015;SDS011;3036;49.960;8.454;2024-02-16T07:02:28;6.10;;;4.30;;
6015;SDS011;3036;49.960;8.454;2024-02-16T07:04:55;5.37;;;4.70;;
6015;SDS011;3036;49.960;8.454;2024-02-16T07:07:22;6.37;;;5.23;;
6015;SDS011;3036;49.960;8.454;2024-02-16T07:09:49;7.83;;;5.10;;
6015;SDS011;3036;49.960;8.454;2024-02-16T07:12:16;6.50;;;5.13;;
6015;SDS011;3036;49.960;8.454;2024-02-16T07:14:44;8.23;;;5.10;;
6015;SDS011;3036;49.960;8.454;2024-02-16T07:17:13;5.80;;;5.20;;
6015;SDS011;3036;49.960;8.454;2024-02-16T07:19:41;6.80;;;5.83;;
6015;SDS011;3036;49.960;8.454;2024-02-16T07:22:08;9.47;;;5.63;;
6015;SDS011;3036;49.960;8.454;2024-02-16T07:24:37;10.17;;;5.80;;
6015;SDS011;3036;49.960;8.454;2024-02-16T07:27:04;5.67;;;5.10;;
6015;SDS011;3036;49.960;8.454;2024-02-16T07:29:31;8.83;;;5.40;;
6015;SDS011;3036;49.960;8.454;2024-02-16T07:31:59;8.00;;;5.70;;
6015;SDS011;3036;49.960;8.454;2024-02-16T07:34:29;6.23;;;5.30;;
6015;SDS011;3036;49.960;8.454;2024-02-16T07:36:56;6.30;;;5.70;;
6015;SDS011;3036;49.960;8.454;2024-02-16T07:39:23;6.20;;;5.60;;
6015;SDS011;3036;49.960;8.454;2024-02-16T07:41:50;6.40;;;5.63;;
6015;SDS011;3036;49.960;8.454;2024-02-16T07:44:17;15.37;;;7.30;;
6015;SDS011;3036;49.960;8.454;2024-02-16T07:46:45;9.57;;;6.40;;
6015;SDS011;3036;49.960;8.454;2024-02-16T07:49:12;7.10;;;6.33;;
6015;SDS011;3036;49.960;8.454;2024-02-16T07:51:41;10.07;;;6.67;;
6015;SDS011;3036;49.960;8.454;2024-02-16T07:54:08;8.33;;;6.27;;
6015;SDS011;3036;49.960;8.454;2024-02-16T07:56:35;8.83;;;7.30;;
6015;SDS011;3036;49.960;8.454;2024-02-16T07:59:02;14.97;;;7.70;;
6015;SDS011;3036;49.960;8.454;2024-02-16T08:01:31;10.17;;;7.13;;
6015;SDS011;3036;49.960;8.454;2024-02-16T08:03:58;13.07;;;8.20;;
6015;SDS011;3036;49.960;8.454;2024-02-16T08:06:26;9.50;;;6.77;;
6015;SDS011;3036;49.960;8.454;2024-02-16T08:08:54;7.00;;;6.30;;
6015;SDS011;3036;49.960;8.454;2024-02-16T08:11:22;7.53;;;5.77;;
6015;SDS011;3036;49.960;8.454;2024-02-16T08:13:49;9.27;;;6.23;;
6015;SDS011;3036;49.960;8.454;2024-02-16T08:16:16;8.47;;;5.77;;
6015;SDS011;3036;49.960;8.454;2024-02-16T08:18:43;6.07;;;5.20;;
6015;SDS011;3036;49.960;8.454;2024-02-16T08:21:11;5.93;;;5.40;;
6015;SDS011;3036;49.960;8.454;2024-02-16T08:23:38;8.53;;;5.07;;
6015;SDS011;3036;49.960;8.454;2024-02-16T08:26:07;8.10;;;5.37;;
6015;SDS011;3036;49.960;8.454;2024-02-16T08:28:34;10.10;;;5.50;;
6015;SDS011;3036;49.960;8.454;2024-02-16T08:31:01;6.37;;;5.30;;
6015;SDS011;3036;49.960;8.454;2024-02-16T08:33:28;7.10;;;5.40;;
6015;SDS011;3036;49.960;8.454;2024-02-16T08:35:55;6.63;;;5.10;;
6015;SDS011;3036;49.960;8.454;2024-02-16T08:38:22;7.67;;;5.63;;
6015;SDS011;3036;49.960;8.454;2024-02-16T08:40:49;5.37;;;4.73;;
6015;SDS011;3036;49.960;8.454;2024-02-16T08:43:18;5.83;;;5.30;;
6015;SDS011;3036;49.960;8.454;2024-02-16T08:45:45;6.73;;;5.80;;
6015;SDS011;3036;49.960;8.454;2024-02-16T08:48:12;5.37;;;4.97;;
6015;SDS011;3036;49.960;8.454;2024-02-16T08:50:39;9.50;;;5.57;;
6015;SDS011;3036;49.960;8.454;2024-02-16T08:53:06;5.60;;;5.10;;
6015;SDS011;3036;49.960;8.454;2024-02-16T08:55:35;6.33;;;5.10;;
6015;SDS011;3036;49.960;8.454;2024-02-16T08:58:02;5.67;;;5.20;;
6015;SDS011;3036;49.960;8.454;2024-02-16T09:00:30;6.07;;;5.43;;
6015;SDS011;3036;49.960;8.454;2024-02-16T09:02:57;5.77;;;5.17;;
6015;SDS011;3036;49.960;8.454;2024-02-16T09:05:27;10.00;;;5.83;;
6015;SDS011;3036;49.960;8.454;2024-02-16T09:07:54;8.07;;;5.00;;
6015;SDS011;3036;49.960;8.454;2024-02-16T09:10:22;6.67;;;5.50;;
6015;SDS011;3036;49.960;8.454;2024-02-16T09:12:49;6.63;;;5.07;;
6015;SDS011;3036;49.960;8.454;2024-02-16T09:15:17;6.03;;;5.37;;
6015;SDS011;3036;49.960;8.454;2024-02-16T09:17:45;7.40;;;5.30;;
6015;SDS011;3036;49.960;8.454;2024-02-16T09:20:12;6.13;;;5.23;;
6015;SDS011;3036;49.960;8.454;2024-02-16T09:22:40;7.47;;;5.63;;
6015;SDS011;3036;49.960;8.454;2024-02-16T09:25:07;5.53;;;4.83;;
6015;SDS011;3036;49.960;8.454;2024-02-16T09:27:34;5.97;;;5.37;;
6015;SDS011;3036;49.960;8.454;2024-02-16T09:30:05;7.63;;;5.00;;
6015;SDS011;3036;49.960;8.454;2024-02-16T09:32:35;10.00;;;4.97;;
6015;SDS011;3036;49.960;8.454;2024-02-16T09:35:04;6.93;;;5.00;;
6015;SDS011;3036;49.960;8.454;2024-02-16T09:37:31;5.80;;;5.30;;
6015;SDS011;3036;49.960;8.454;2024-02-16T09:39:58;7.30;;;5.60;;
6015;SDS011;3036;49.960;8.454;2024-02-16T09:42:25;6.47;;;5.35;;
6015;SDS011;3036;49.960;8.454;2024-02-16T09:44:53;9.80;;;5.30;;
6015;SDS011;3036;49.960;8.454;2024-02-16T09:47:21;14.10;;;4.97;;
6015;SDS011;3036;49.960;8.454;2024-02-16T09:49:48;6.63;;;5.30;;
6015;SDS011;3036;49.960;8.454;2024-02-16T09:52:17;6.88;;;5.55;;
6015;SDS011;3036;49.960;8.454;2024-02-16T09:54:44;7.93;;;5.32;;
6015;SDS011;3036;49.960;8.454;2024-02-16T09:57:11;6.05;;;5.22;;
6015;SDS011;3036;49.960;8.454;2024-02-16T09:59:38;5.70;;;5.20;;
6015;SDS011;3036;49.960;8.454;2024-02-16T10:02:05;6.33;;;5.33;;
6015;SDS011;3036;49.960;8.454;2024-02-16T10:04:33;4.78;;;4.30;;
6015;SDS011;3036;49.960;8.454;2024-02-16T10:07:00;5.55;;;4.40;;
6015;SDS011;3036;49.960;8.454;2024-02-16T10:09:30;5.88;;;5.00;;
6015;SDS011;3036;49.960;8.454;2024-02-16T10:11:58;5.35;;;4.85;;
6015;SDS011;3036;49.960;8.454;2024-02-16T10:14:25;6.47;;;4.57;;
6015;SDS011;3036;49.960;8.454;2024-02-16T10:16:59;6.25;;;4.93;;
6015;SDS011;3036;49.960;8.454;2024-02-16T10:19:28;7.03;;;5.07;;
6015;SDS011;3036;49.960;8.454;2024-02-16T10:22:04;7.82;;;4.78;;
6015;SDS011;3036;49.960;8.454;2024-02-16T10:24:33;4.70;;;4.25;;
6015;SDS011;3036;49.960;8.454;2024-02-16T10:27:00;5.75;;;4.35;;
6015;SDS011;3036;49.960;8.454;2024-02-16T10:29:27;5.43;;;4.88;;
6015;SDS011;3036;49.960;8.454;2024-02-16T10:31:54;8.80;;;4.90;;
6015;SDS011;3036;49.960;8.454;2024-02-16T10:34:22;5.18;;;4.68;;
6015;SDS011;3036;49.960;8.454;2024-02-16T10:36:51;4.88;;;4.20;;
6015;SDS011;3036;49.960;8.454;2024-02-16T10:39:18;4.47;;;4.20;;
6015;SDS011;3036;49.960;8.454;2024-02-16T10:41:47;6.32;;;4.82;;
6015;SDS011;3036;49.960;8.454;2024-02-16T10:44:14;8.45;;;4.75;;
6015;SDS011;3036;49.960;8.454;2024-02-16T10:46:42;6.27;;;4.40;;
6015;SDS011;3036;49.960;8.454;2024-02-16T10:49:09;9.27;;;4.60;;
6015;SDS011;3036;49.960;8.454;2024-02-16T10:51:37;6.60;;;4.70;;
6015;SDS011;3036;49.960;8.454;2024-02-16T10:54:04;5.78;;;4.43;;
6015;SDS011;3036;49.960;8.454;2024-02-16T10:56:33;5.33;;;4.30;;
6015;SDS011;3036;49.960;8.454;2024-02-16T10:59:02;7.20;;;4.90;;
6015;SDS011;3036;49.960;8.454;2024-02-16T11:01:32;5.65;;;4.57;;
6015;SDS011;3036;49.960;8.454;2024-02-16T11:04:00;4.70;;;4.30;;
6015;SDS011;3036;49.960;8.454;2024-02-16T11:06:28;5.90;;;4.88;;
6015;SDS011;3036;49.960;8.454;2024-02-16T11:09:01;5.28;;;4.72;;
6015;SDS011;3036;49.960;8.454;2024-02-16T11:11:32;9.70;;;4.80;;
6015;SDS011;3036;49.960;8.454;2024-02-16T11:14:02;5.70;;;4.35;;
6015;SDS011;3036;49.960;8.454;2024-02-16T11:16:29;6.22;;;4.82;;
6015;SDS011;3036;49.960;8.454;2024-02-16T11:18:57;6.75;;;4.63;;
6015;SDS011;3036;49.960;8.454;2024-02-16T11:21:24;5.43;;;4.53;;
6015;SDS011;3036;49.960;8.454;2024-02-16T11:23:51;6.05;;;5.03;;
6015;SDS011;3036;49.960;8.454;2024-02-16T11:26:18;6.50;;;5.07;;
6015;SDS011;3036;49.960;8.454;2024-02-16T11:28:45;5.45;;;4.45;;
6015;SDS011;3036;49.960;8.454;2024-02-16T11:31:13;8.23;;;4.30;;
6015;SDS011;3036;49.960;8.454;2024-02-16T11:33:43;6.25;;;4.40;;
6015;SDS011;3036;49.960;8.454;2024-02-16T11:36:11;4.82;;;3.75;;
6015;SDS011;3036;49.960;8.454;2024-02-16T11:38:38;9.95;;;4.15;;
6015;SDS011;3036;49.960;8.454;2024-02-16T11:41:05;5.22;;;3.85;;
6015;SDS011;3036;49.960;8.454;2024-02-16T11:43:33;6.85;;;4.15;;
6015;SDS011;3036;49.960;8.454;2024-02-16T11:46:10;3.53;;;3.17;;
6015;SDS011;3036;49.960;8.454;2024-02-16T11:48:39;10.02;;;3.97;;
6015;SDS011;3036;49.960;8.454;2024-02-16T11:51:07;3.80;;;3.45;;
6015;SDS011;3036;49.960;8.454;2024-02-16T11:53:34;3.90;;;3.70;;
6015;SDS011;3036;49.960;8.454;2024-02-16T11:56:01;3.58;;;3.28;;
6015;SDS011;3036;49.960;8.454;2024-02-16T11:58:28;3.50;;;3.20;;
6015;SDS011;3036;49.960;8.454;2024-02-16T12:00:57;4.47;;;2.95;;
6015;SDS011;3036;49.960;8.454;2024-02-16T12:03:25;3.78;;;3.40;;
6015;SDS011;3036;49.960;8.454;2024-02-16T12:05:54;4.32;;;3.15;;
6015;SDS011;3036;49.960;8.454;2024-02-16T12:08:22;3.88;;;2.47;;
6015;SDS011;3036;49.960;8.454;2024-02-16T12:10:50;4.97;;;2.80;;
6015;SDS011;3036;49.960;8.454;2024-02-16T12:13:17;3.17;;;2.75;;
6015;SDS011;3036;49.960;8.454;2024-02-16T12:15:45;7.25;;;2.65;;
6015;SDS011;3036;49.960;8.454;2024-02-16T12:18:19;2.47;;;2.30;;
6015;SDS011;3036;49.960;8.454;2024-02-16T12:20:57;2.40;;;1.65;;
6015;SDS011;3036;49.960;8.454;2024-02-16T12:23:24;3.20;;;2.05;;
6015;SDS011;3036;49.960;8.454;2024-02-16T12:25:51;2.08;;;1.98;;
6015;SDS011;3036;49.960;8.454;2024-02-16T12:28:18;5.97;;;2.13;;
6015;SDS011;3036;49.960;8.454;2024-02-16T12:30:46;1.95;;;1.65;;
6015;SDS011;3036;49.960;8.454;2024-02-16T12:33:13;1.70;;;1.60;;
6015;SDS011;3036;49.960;8.454;2024-02-16T12:35:40;1.85;;;1.65;;
6015;SDS011;3036;49.960;8.454;2024-02-16T12:38:08;1.60;;;1.50;;
6015;SDS011;3036;49.960;8.454;2024-02-16T12:40:35;1.75;;;1.65;;
6015;SDS011;3036;49.960;8.454;2024-02-16T12:43:03;3.95;;;1.77;;
6015;SDS011;3036;49.960;8.454;2024-02-16T12:45:30;1.70;;;1.60;;
6015;SDS011;3036;49.960;8.454;2024-02-16T12:47:57;1.70;;;1.60;;
6015;SDS011;3036;49.960;8.454;2024-02-16T12:50:25;2.92;;;1.77;;
6015;SDS011;3036;49.960;8.454;2024-02-16T12:52:52;1.40;;;1.40;;
6015;SDS011;3036;49.960;8.454;2024-02-16T12:55:20;1.80;;;1.70;;
6015;SDS011;3036;49.960;8.454;2024-02-16T12:57:48;1.48;;;1.40;;
6015;SDS011;3036;49.960;8.454;2024-02-16T13:00:16;3.60;;;1.30;;
6015;SDS011;3036;49.960;8.454;2024-02-16T13:02:43;1.90;;;1.50;;
6015;SDS011;3036;49.960;8.454;2024-02-16T13:05:10;1.98;;;1.52;;
6015;SDS011;3036;49.960;8.454;2024-02-16T13:07:37;2.63;;;1.67;;
6015;SDS011;3036;49.960;8.454;2024-02-16T13:10:06;1.63;;;1.50;;
6015;SDS011;3036;49.960;8.454;2024-02-16T13:12:35;2.05;;;1.70;;
6015;SDS011;3036;49.960;8.454;2024-02-16T13:15:03;1.77;;;1.67;;
6015;SDS011;3036;49.960;8.454;2024-02-16T13:17:30;2.22;;;1.45;;
6015;SDS011;3036;49.960;8.454;2024-02-16T13:19:58;6.35;;;2.08;;
6015;SDS011;3036;49.960;8.454;2024-02-16T13:22:31;1.75;;;1.65;;
6015;SDS011;3036;49.960;8.454;2024-02-16T13:24:58;1.50;;;1.40;;
6015;SDS011;3036;49.960;8.454;2024-02-16T13:27:25;1.77;;;1.60;;
6015;SDS011;3036;49.960;8.454;2024-02-16T13:29:54;2.97;;;1.45;;
6015;SDS011;3036;49.960;8.454;2024-02-16T13:32:21;4.80;;;1.90;;
6015;SDS011;3036;49.960;8.454;2024-02-16T13:34:48;3.70;;;1.48;;
6015;SDS011;3036;49.960;8.454;2024-02-16T13:37:15;2.05;;;1.83;;
6015;SDS011;3036;49.960;8.454;2024-02-16T13:39:42;3.28;;;1.77;;
6015;SDS011;3036;49.960;8.454;2024-02-16T13:42:09;1.83;;;1.50;;
6015;SDS011;3036;49.960;8.454;2024-02-16T13:44:37;1.25;;;1.25;;
6015;SDS011;3036;49.960;8.454;2024-02-16T13:47:05;6.95;;;1.55;;
6015;SDS011;3036;49.960;8.454;2024-02-16T13:49:33;1.55;;;1.45;;
6015;SDS011;3036;49.960;8.454;2024-02-16T13:52:00;1.40;;;1.38;;
6015;SDS011;3036;49.960;8.454;2024-02-16T13:54:28;6.35;;;1.67;;
6015;SDS011;3036;49.960;8.454;2024-02-16T13:56:55;2.20;;;1.73;;
6015;SDS011;3036;49.960;8.454;2024-02-16T13:59:22;5.32;;;1.80;;
6015;SDS011;3036;49.960;8.454;2024-02-16T14:01:49;2.53;;;1.52;;
6015;SDS011;3036;49.960;8.454;2024-02-16T14:04:17;1.50;;;1.40;;
6015;SDS011;3036;49.960;8.454;2024-02-16T14:06:44;1.33;;;1.33;;
6015;SDS011;3036;49.960;8.454;2024-02-16T14:09:11;1.42;;;1.23;;
6015;SDS011;3036;49.960;8.454;2024-02-16T14:11:39;3.88;;;1.45;;
6015;SDS011;3036;49.960;8.454;2024-02-16T14:14:07;3.17;;;1.52;;
6015;SDS011;3036;49.960;8.454;2024-02-16T14:16:34;1.42;;;1.33;;
6015;SDS011;3036;49.960;8.454;2024-02-16T14:19:02;1.63;;;1.45;;
6015;SDS011;3036;49.960;8.454;2024-02-16T14:21:30;3.20;;;1.95;;
6015;SDS011;3036;49.960;8.454;2024-02-16T14:23:57;4.20;;;1.70;;
6015;SDS011;3036;49.960;8.454;2024-02-16T14:26:24;1.30;;;1.15;;
6015;SDS011;3036;49.960;8.454;2024-02-16T14:28:51;1.65;;;1.55;;
6015;SDS011;3036;49.960;8.454;2024-02-16T14:31:20;1.65;;;1.55;;
6015;SDS011;3036;49.960;8.454;2024-02-16T14:33:47;4.10;;;1.30;;
6015;SDS011;3036;49.960;8.454;2024-02-16T14:36:15;2.10;;;1.58;;
6015;SDS011;3036;49.960;8.454;2024-02-16T14:38:43;1.70;;;1.60;;
6015;SDS011;3036;49.960;8.454;2024-02-16T14:41:10;3.00;;;1.80;;
6015;SDS011;3036;49.960;8.454;2024-02-16T14:43:37;1.75;;;1.25;;
6015;SDS011;3036;49.960;8.454;2024-02-16T14:46:04;2.03;;;1.90;;
6015;SDS011;3036;49.960;8.454;2024-02-16T14:48:32;2.05;;;1.90;;
6015;SDS011;3036;49.960;8.454;2024-02-16T14:51:00;1.75;;;1.65;;
6015;SDS011;3036;49.960;8.454;2024-02-16T14:53:27;2.97;;;1.77;;
6015;SDS011;3036;49.960;8.454;2024-02-16T14:55:57;1.70;;;1.42;;
6015;SDS011;3036;49.960;8.454;2024-02-16T14:58:24;2.40;;;1.55;;
6015;SDS011;3036;49.960;8.454;2024-02-16T15:00:51;2.65;;;1.60;;
6015;SDS011;3036;49.960;8.454;2024-02-16T15:03:19;3.00;;;1.30;;
6015;SDS011;3036;49.960;8.454;2024-02-16T15:05:46;2.03;;;1.73;;
6015;SDS011;3036;49.960;8.454;2024-02-16T15:08:13;3.25;;;1.70;;
6015;SDS011;3036;49.960;8.454;2024-02-16T15:10:40;3.97;;;1.83;;
6015;SDS011;3036;49.960;8.454;2024-02-16T15:13:09;1.77;;;1.55;;
6015;SDS011;3036;49.960;8.454;2024-02-16T15:15:36;2.95;;;1.80;;
6015;SDS011;3036;49.960;8.454;2024-02-16T15:18:04;2.08;;;1.65;;